Time;durP1;ratioP1;P1;durP2;ratioP2;P2;SDS_P1;SDS_P2;PMS_P1;PMS_P2;Temp;Humidity;BMP_temperature;BMP_pressure;BME280_temperature;BME280_humidity;BME280_pressure;Samples;Min_cycle;Max_cycle;Signal;HPM_P1;HPM_P2
2022/05/18 00:00:30;;;;;;;10.82;4.47;;;;;;;;;;4965655;28;20054;-56
2022/05/18 00:03:04;;;;;;;14.80;5.32;;;;;;;;;;4964261;28;20082;-56
2022/05/18 00:05:31;;;;;;;11.52;5.10;;;;;;;;;;4965487;28;20071;-57
2022/05/18 00:07:58;;;;;;;13.27;5.10;;;;;;;;;;4965658;28;20050;-56
2022/05/18 00:10:24;;;;;;;11.55;4.82;;;;;;;;;;4965124;28;20047;-56
2022/05/18 00:12:51;;;;;;;11.40;5.93;;;;;;;;;;4965465;28;20073;-56
2022/05/18 00:15:19;;;;;;;8.73;5.20;;;;;;;;;;4965321;28;20039;-57
2022/05/18 00:17:45;;;;;;;8.52;5.45;;;;;;;;;;4965579;28;20046;-57
2022/05/18 00:20:12;;;;;;;9.00;5.18;;;;;;;;;;4964071;28;20094;-57
2022/05/18 00:22:43;;;;;;;7.85;4.50;;;;;;;;;;4964124;28;20055;-56
2022/05/18 00:25:09;;;;;;;9.35;5.85;;;;;;;;;;4965564;28;20043;-56
2022/05/18 00:27:35;;;;;;;13.52;6.10;;;;;;;;;;4964804;28;20054;-58
2022/05/18 00:30:01;;;;;;;15.20;5.45;;;;;;;;;;4965273;28;20572;-56
2022/05/18 00:32:27;;;;;;;10.10;5.13;;;;;;;;;;4965317;28;20050;-56
2022/05/18 00:34:54;;;;;;;7.78;4.72;;;;;;;;;;4964887;28;20043;-56
2022/05/18 00:37:20;;;;;;;9.50;4.80;;;;;;;;;;4963486;28;20445;-56
2022/05/18 00:39:46;;;;;;;10.23;4.95;;;;;;;;;;4965447;28;20043;-57
2022/05/18 00:42:19;;;;;;;9.88;4.82;;;;;;;;;;4965014;28;20065;-57
2022/05/18 00:44:46;;;;;;;8.80;4.57;;;;;;;;;;4965214;28;20031;-56
2022/05/18 00:47:12;;;;;;;11.52;5.25;;;;;;;;;;4965431;28;20093;-57
2022/05/18 00:49:38;;;;;;;8.90;4.70;;;;;;;;;;4965935;28;20054;-57
2022/05/18 00:52:06;;;;;;;9.75;4.82;;;;;;;;;;4969285;28;20043;-56
2022/05/18 00:54:33;;;;;;;12.50;5.30;;;;;;;;;;4968642;28;20149;-57
2022/05/18 00:57:08;;;;;;;10.85;4.05;;;;;;;;;;4968928;28;20042;-56
2022/05/18 00:59:38;;;;;;;11.55;5.20;;;;;;;;;;4968794;28;20128;-57
2022/05/18 01:02:05;;;;;;;12.70;5.03;;;;;;;;;;4969095;28;20493;-56
2022/05/18 01:04:31;;;;;;;13.48;4.68;;;;;;;;;;4967344;28;20059;-57
2022/05/18 01:07:02;;;;;;;9.15;4.82;;;;;;;;;;4967540;28;20055;-56
2022/05/18 01:09:33;;;;;;;7.85;4.78;;;;;;;;;;4970246;23;20051;-60
2022/05/18 01:12:00;;;;;;;8.60;4.93;;;;;;;;;;4949155;29;20059;-60
2022/05/18 01:14:29;;;;;;;13.07;5.53;;;;;;;;;;4948999;28;20047;-60
2022/05/18 01:16:55;;;;;;;10.57;5.10;;;;;;;;;;4947779;29;20062;-60
2022/05/18 01:19:39;;;;;;;7.18;4.43;;;;;;;;;;4948051;28;20489;-60
2022/05/18 01:22:25;;;;;;;7.60;4.43;;;;;;;;;;4949413;28;20047;-61
2022/05/18 01:25:02;;;;;;;11.30;4.90;;;;;;;;;;4948224;28;20062;-60
2022/05/18 01:27:28;;;;;;;9.38;4.55;;;;;;;;;;4948894;28;20043;-60
2022/05/18 01:29:55;;;;;;;7.93;4.78;;;;;;;;;;4949306;28;20047;-60
2022/05/18 01:32:21;;;;;;;7.80;4.80;;;;;;;;;;4948867;28;20506;-60
2022/05/18 01:34:48;;;;;;;10.95;5.25;;;;;;;;;;4948068;28;20051;-60
2022/05/18 01:37:15;;;;;;;8.88;4.90;;;;;;;;;;4948302;28;20105;-60
2022/05/18 01:39:45;;;;;;;11.18;5.05;;;;;;;;;;4948799;28;20047;-60
2022/05/18 01:42:27;;;;;;;10.68;5.18;;;;;;;;;;4949268;28;20039;-60
2022/05/18 01:44:53;;;;;;;11.70;4.95;;;;;;;;;;4948638;28;20160;-60
2022/05/18 01:47:19;;;;;;;10.98;5.50;;;;;;;;;;4948414;28;20043;-61
2022/05/18 01:49:46;;;;;;;7.95;5.10;;;;;;;;;;4947778;28;20058;-60
2022/05/18 01:52:12;;;;;;;11.35;4.65;;;;;;;;;;4948544;28;20047;-60
2022/05/18 01:54:40;;;;;;;8.02;4.38;;;;;;;;;;4946846;29;20086;-60
2022/05/18 01:57:06;;;;;;;10.48;5.32;;;;;;;;;;4948646;28;20499;-60
2022/05/18 01:59:32;;;;;;;9.45;4.65;;;;;;;;;;4948128;28;20807;-60
2022/05/18 02:01:58;;;;;;;9.60;4.47;;;;;;;;;;4948042;28;20046;-61
2022/05/18 02:04:25;;;;;;;7.47;4.50;;;;;;;;;;4947297;28;20051;-60
2022/05/18 02:06:51;;;;;;;12.02;4.60;;;;;;;;;;4948485;28;20054;-60
2022/05/18 02:09:19;;;;;;;6.60;4.28;;;;;;;;;;4947586;28;20509;-60
2022/05/18 02:11:46;;;;;;;8.55;4.70;;;;;;;;;;4948119;28;20059;-61
2022/05/18 02:14:12;;;;;;;7.97;4.63;;;;;;;;;;4946195;29;20101;-61
2022/05/18 02:16:38;;;;;;;11.10;5.30;;;;;;;;;;4948020;28;20050;-61
2022/05/18 02:19:04;;;;;;;8.38;4.70;;;;;;;;;;4947786;28;20059;-61
2022/05/18 02:21:30;;;;;;;7.88;4.50;;;;;;;;;;4947971;28;20057;-60
2022/05/18 02:23:57;;;;;;;12.20;5.05;;;;;;;;;;4948140;28;20045;-60
2022/05/18 02:26:23;;;;;;;6.22;4.53;;;;;;;;;;4947439;28;20408;-60
2022/05/18 02:28:49;;;;;;;8.75;4.57;;;;;;;;;;4947478;28;20058;-61
2022/05/18 02:31:15;;;;;;;9.75;4.75;;;;;;;;;;4947457;28;20142;-60
2022/05/18 02:33:41;;;;;;;10.10;4.93;;;;;;;;;;4946979;28;20057;-60
2022/05/18 02:36:08;;;;;;;7.45;4.80;;;;;;;;;;4947768;28;20374;-61
2022/05/18 02:38:35;;;;;;;11.43;5.22;;;;;;;;;;4941161;28;20107;-60
2022/05/18 02:41:02;;;;;;;7.28;4.88;;;;;;;;;;4947625;29;20126;-60
2022/05/18 02:43:28;;;;;;;10.43;5.38;;;;;;;;;;4947368;28;20050;-60
2022/05/18 02:46:01;;;;;;;9.20;5.03;;;;;;;;;;4947772;28;20102;-60
2022/05/18 02:48:27;;;;;;;9.38;5.07;;;;;;;;;;4945918;28;20054;-61
2022/05/18 02:50:53;;;;;;;8.20;5.13;;;;;;;;;;4947711;28;20047;-60
2022/05/18 02:53:19;;;;;;;9.15;5.05;;;;;;;;;;4947176;28;20047;-60
2022/05/18 02:58:30;;;;;;;11.55;5.43;;;;;;;;;;4947284;29;20202;-60
2022/05/18 03:00:56;;;;;;;9.00;5.35;;;;;;;;;;4947425;28;20136;-60
2022/05/18 03:03:23;;;;;;;17.27;5.40;;;;;;;;;;4946553;28;20046;-60
2022/05/18 03:05:49;;;;;;;11.10;5.65;;;;;;;;;;4947164;28;20051;-60
2022/05/18 03:08:15;;;;;;;12.13;5.15;;;;;;;;;;4946806;28;20051;-61
2022/05/18 03:10:42;;;;;;;12.10;5.75;;;;;;;;;;4947398;28;20704;-60
2022/05/18 03:13:08;;;;;;;41.17;7.05;;;;;;;;;;4946033;28;20130;-60
2022/05/18 03:15:34;;;;;;;10.68;5.60;;;;;;;;;;4962183;28;20054;-60
2022/05/18 03:18:00;;;;;;;10.73;5.90;;;;;;;;;;4946432;28;20658;-60
2022/05/18 03:25:56;;;;;;;12.25;6.53;;;;;;;;;;4946919;29;20200;-60
2022/05/18 03:28:22;;;;;;;11.60;5.88;;;;;;;;;;4946851;28;20134;-60
2022/05/18 03:30:48;;;;;;;9.50;5.68;;;;;;;;;;4946859;28;20126;-60
2022/05/18 03:33:15;;;;;;;8.77;6.00;;;;;;;;;;4946296;28;20126;-60
2022/05/18 03:35:41;;;;;;;8.85;5.57;;;;;;;;;;4946762;28;20397;-60
2022/05/18 03:38:07;;;;;;;10.00;5.65;;;;;;;;;;4947046;28;20545;-61
2022/05/18 03:40:36;;;;;;;13.15;5.85;;;;;;;;;;4946143;28;20106;-60
2022/05/18 03:43:03;;;;;;;10.23;6.07;;;;;;;;;;4947456;28;20058;-60
2022/05/18 03:45:30;;;;;;;10.30;6.35;;;;;;;;;;4946420;28;20533;-60
2022/05/18 03:47:56;;;;;;;10.95;5.93;;;;;;;;;;4945822;28;20457;-60
2022/05/18 03:50:23;;;;;;;14.45;6.32;;;;;;;;;;4946488;28;20090;-60
2022/05/18 03:52:49;;;;;;;8.50;5.90;;;;;;;;;;4946461;28;20047;-60
2022/05/18 03:55:15;;;;;;;11.43;6.45;;;;;;;;;;4944621;29;20050;-60
2022/05/18 03:57:41;;;;;;;11.45;6.38;;;;;;;;;;4946717;28;20055;-60
2022/05/18 04:00:07;;;;;;;10.63;6.82;;;;;;;;;;4946740;28;20047;-60
2022/05/18 04:02:34;;;;;;;9.68;6.40;;;;;;;;;;4945078;29;20103;-60
2022/05/18 04:05:00;;;;;;;10.40;6.18;;;;;;;;;;4946847;28;20075;-60
2022/05/18 04:07:26;;;;;;;9.80;6.75;;;;;;;;;;4945897;28;20117;-60
2022/05/18 04:09:52;;;;;;;11.18;6.53;;;;;;;;;;4946137;28;20065;-60
2022/05/18 04:12:18;;;;;;;10.43;6.50;;;;;;;;;;4945979;28;20126;-60
2022/05/18 04:14:45;;;;;;;9.85;5.93;;;;;;;;;;4946400;28;20670;-60
2022/05/18 04:17:11;;;;;;;14.07;7.30;;;;;;;;;;4946486;28;20043;-60
2022/05/18 04:19:37;;;;;;;9.02;6.45;;;;;;;;;;4945454;28;20043;-61
2022/05/18 04:22:03;;;;;;;12.55;6.55;;;;;;;;;;4946481;28;20047;-60
2022/05/18 04:24:29;;;;;;;11.98;6.57;;;;;;;;;;4947749;28;20066;-60
2022/05/18 04:26:56;;;;;;;11.60;7.07;;;;;;;;;;4950218;28;20061;-60
2022/05/18 04:29:22;;;;;;;9.85;6.68;;;;;;;;;;4949737;28;20047;-60
2022/05/18 04:31:48;;;;;;;10.70;6.40;;;;;;;;;;4949980;28;20512;-60
2022/05/18 04:34:15;;;;;;;13.23;6.72;;;;;;;;;;4948979;28;20047;-59
2022/05/18 04:36:43;;;;;;;13.05;7.65;;;;;;;;;;4949512;28;20446;-60
2022/05/18 04:39:09;;;;;;;14.52;7.38;;;;;;;;;;4949974;28;20047;-60
2022/05/18 04:41:35;;;;;;;13.40;7.18;;;;;;;;;;4949741;28;20043;-58
2022/05/18 04:44:01;;;;;;;18.05;7.85;;;;;;;;;;4950320;28;20058;-60
2022/05/18 04:46:27;;;;;;;10.23;7.13;;;;;;;;;;4949552;28;20062;-60
2022/05/18 04:48:53;;;;;;;11.85;7.32;;;;;;;;;;4948823;28;20050;-60
2022/05/18 04:51:19;;;;;;;13.40;7.35;;;;;;;;;;4948885;28;20039;-60
2022/05/18 04:53:45;;;;;;;15.85;8.40;;;;;;;;;;4949394;28;20664;-60
2022/05/18 04:56:11;;;;;;;11.85;7.60;;;;;;;;;;4949438;28;20051;-60
2022/05/18 04:58:38;;;;;;;12.57;7.32;;;;;;;;;;4949391;28;20095;-60
2022/05/18 05:01:05;;;;;;;14.00;6.85;;;;;;;;;;4949696;28;20126;-59
2022/05/18 05:03:31;;;;;;;14.13;7.43;;;;;;;;;;4948912;28;20058;-60
2022/05/18 05:05:57;;;;;;;11.65;7.53;;;;;;;;;;4948931;28;20097;-60
2022/05/18 05:08:24;;;;;;;11.45;7.55;;;;;;;;;;4948976;28;20047;-60
2022/05/18 05:10:50;;;;;;;13.93;7.75;;;;;;;;;;4949470;28;20050;-60
2022/05/18 05:13:16;;;;;;;15.40;7.90;;;;;;;;;;4948488;28;20133;-59
2022/05/18 05:15:44;;;;;;;10.75;7.60;;;;;;;;;;4949395;28;20051;-60
2022/05/18 05:18:11;;;;;;;10.93;8.02;;;;;;;;;;4948574;28;20058;-61
2022/05/18 05:20:37;;;;;;;14.30;8.20;;;;;;;;;;4948696;28;20485;-61
2022/05/18 05:23:03;;;;;;;11.73;7.88;;;;;;;;;;4949651;28;20122;-60
2022/05/18 05:25:29;;;;;;;15.15;8.27;;;;;;;;;;4947874;28;20051;-60
2022/05/18 05:27:55;;;;;;;19.27;8.80;;;;;;;;;;4949352;29;20082;-59
2022/05/18 05:30:22;;;;;;;11.85;7.95;;;;;;;;;;4947836;28;20126;-60
2022/05/18 05:32:48;;;;;;;11.85;8.50;;;;;;;;;;4948528;29;20058;-60
2022/05/18 05:35:14;;;;;;;13.25;7.93;;;;;;;;;;4946958;28;20074;-59
2022/05/18 05:37:40;;;;;;;15.20;8.35;;;;;;;;;;4947627;28;20051;-60
2022/05/18 05:40:07;;;;;;;12.10;8.00;;;;;;;;;;4945912;28;20114;-60
2022/05/18 05:42:33;;;;;;;13.02;8.80;;;;;;;;;;4941184;29;20050;-60
2022/05/18 05:44:59;;;;;;;13.75;9.20;;;;;;;;;;4934057;29;20115;-60
2022/05/18 05:47:25;;;;;;;12.30;8.70;;;;;;;;;;4927674;29;20062;-58
2022/05/18 05:49:52;;;;;;;16.25;9.13;;;;;;;;;;4935292;29;20040;-61
2022/05/18 05:52:18;;;;;;;21.17;8.88;;;;;;;;;;4933700;29;20049;-60
2022/05/18 05:54:45;;;;;;;15.63;8.55;;;;;;;;;;4929943;29;20457;-60
2022/05/18 05:57:11;;;;;;;16.67;9.48;;;;;;;;;;4934690;29;20047;-60
2022/05/18 05:59:38;;;;;;;15.48;10.20;;;;;;;;;;4935712;29;20501;-59
2022/05/18 06:02:08;;;;;;;13.57;8.63;;;;;;;;;;4934157;29;20070;-59
2022/05/18 06:04:35;;;;;;;13.27;9.23;;;;;;;;;;4944862;28;20036;-59
2022/05/18 06:07:01;;;;;;;12.65;9.02;;;;;;;;;;4944348;29;20122;-59
2022/05/18 06:09:27;;;;;;;18.33;9.20;;;;;;;;;;4946954;28;20138;-59
2022/05/18 06:11:53;;;;;;;14.85;9.57;;;;;;;;;;4946936;29;20083;-59
2022/05/18 06:14:20;;;;;;;13.48;9.70;;;;;;;;;;4946353;28;20122;-59
2022/05/18 06:16:47;;;;;;;14.45;9.90;;;;;;;;;;4946819;28;20058;-59
2022/05/18 06:19:15;;;;;;;15.18;9.98;;;;;;;;;;4946190;28;20130;-59
2022/05/18 06:21:41;;;;;;;15.80;10.30;;;;;;;;;;4947280;29;20142;-59
2022/05/18 06:24:08;;;;;;;15.52;9.43;;;;;;;;;;4947297;29;20039;-59
2022/05/18 06:26:34;;;;;;;15.50;9.40;;;;;;;;;;4947343;29;20066;-59
2022/05/18 06:29:00;;;;;;;18.23;10.82;;;;;;;;;;4947242;29;20044;-59
2022/05/18 06:31:26;;;;;;;13.10;9.65;;;;;;;;;;4946385;29;20043;-59
2022/05/18 06:33:52;;;;;;;14.57;10.32;;;;;;;;;;4946521;29;20059;-59
2022/05/18 06:36:18;;;;;;;14.75;9.80;;;;;;;;;;4946501;29;20144;-59
2022/05/18 06:38:45;;;;;;;17.50;10.70;;;;;;;;;;4943143;28;20035;-59
2022/05/18 06:41:23;;;;;;;18.85;9.93;;;;;;;;;;4947302;28;20197;-59
2022/05/18 06:43:49;;;;;;;;;;;;;;;;;;4947295;28;20047;-59
2022/05/18 06:46:15;;;;;;;17.25;10.73;;;;;;;;;;4946659;28;19922;-59
2022/05/18 06:48:42;;;;;;;16.40;10.02;;;;;;;;;;4946032;28;20074;-59
2022/05/18 06:51:08;;;;;;;14.57;10.43;;;;;;;;;;4946640;28;20048;-59
2022/05/18 06:53:35;;;;;;;30.88;10.82;;;;;;;;;;4946733;28;20105;-59
2022/05/18 06:56:01;;;;;;;17.95;9.55;;;;;;;;;;4947249;28;20046;-59
2022/05/18 06:58:27;;;;;;;12.63;10.60;;;;;;;;;;4946301;28;20051;-59
2022/05/18 07:00:53;;;;;;;15.85;10.02;;;;;;;;;;4946995;28;20170;-59
2022/05/18 07:03:19;;;;;;;13.05;9.32;;;;;;;;;;4945296;28;20382;-59
2022/05/18 07:05:46;;;;;;;17.50;10.85;;;;;;;;;;4946838;29;20458;-60
2022/05/18 07:08:13;;;;;;;16.77;11.02;;;;;;;;;;4942012;29;20051;-59
2022/05/18 07:10:39;;;;;;;13.02;9.73;;;;;;;;;;4946327;28;20043;-59
2022/05/18 07:13:05;;;;;;;18.02;10.82;;;;;;;;;;4946015;29;20505;-59
2022/05/18 07:15:31;;;;;;;20.45;10.82;;;;;;;;;;4945034;28;20450;-59
2022/05/18 07:17:57;;;;;;;12.80;9.60;;;;;;;;;;4945606;28;20071;-59
2022/05/18 07:20:23;;;;;;;16.08;9.63;;;;;;;;;;4946401;28;20071;-59
2022/05/18 07:22:50;;;;;;;15.80;9.90;;;;;;;;;;4946038;28;20051;-59
2022/05/18 07:25:16;;;;;;;13.35;9.90;;;;;;;;;;4946217;29;20035;-59
2022/05/18 07:27:42;;;;;;;13.32;8.75;;;;;;;;;;4945723;29;20046;-59
2022/05/18 07:30:08;;;;;;;16.77;9.98;;;;;;;;;;4946279;28;20401;-59
2022/05/18 07:32:35;;;;;;;18.63;10.10;;;;;;;;;;4945360;28;20047;-58
2022/05/18 07:35:01;;;;;;;13.38;9.68;;;;;;;;;;4946692;28;20055;-59
2022/05/18 07:37:27;;;;;;;18.27;10.43;;;;;;;;;;4945687;28;20047;-59
2022/05/18 07:39:53;;;;;;;13.90;9.27;;;;;;;;;;4942546;28;20078;-59
2022/05/18 07:42:19;;;;;;;22.65;9.52;;;;;;;;;;4945536;28;20039;-59
2022/05/18 07:44:47;;;;;;;16.42;9.30;;;;;;;;;;4946494;28;20054;-59
2022/05/18 07:47:13;;;;;;;22.90;10.07;;;;;;;;;;4940743;29;20054;-60
2022/05/18 07:49:41;;;;;;;17.23;8.85;;;;;;;;;;4945779;28;20532;-59
2022/05/18 07:52:08;;;;;;;21.25;8.93;;;;;;;;;;4946020;29;20043;-59
2022/05/18 07:54:34;;;;;;;18.60;8.45;;;;;;;;;;4946125;29;20106;-59
2022/05/18 07:57:01;;;;;;;10.52;7.75;;;;;;;;;;4944939;28;20134;-59
2022/05/18 07:59:27;;;;;;;14.40;8.02;;;;;;;;;;4947659;28;20035;-59
2022/05/18 08:01:53;;;;;;;21.67;8.38;;;;;;;;;;4949349;28;20482;-59
2022/05/18 08:04:20;;;;;;;17.08;8.23;;;;;;;;;;4949349;29;20485;-59
2022/05/18 08:06:46;;;;;;;17.33;7.88;;;;;;;;;;4948612;28;20047;-59
2022/05/18 08:09:12;;;;;;;15.05;8.27;;;;;;;;;;4949470;28;20061;-59
2022/05/18 08:17:19;;;;;;;17.17;8.65;;;;;;;;;;4948593;28;20043;-59
2022/05/18 08:19:46;;;;;;;17.83;8.38;;;;;;;;;;4949374;29;20055;-59
2022/05/18 08:22:12;;;;;;;11.93;8.13;;;;;;;;;;4949247;28;20404;-59
2022/05/18 08:24:38;;;;;;;19.98;8.00;;;;;;;;;;4949678;28;20039;-59
2022/05/18 08:27:05;;;;;;;12.38;7.40;;;;;;;;;;4949602;28;20088;-59
2022/05/18 08:29:32;;;;;;;12.32;7.32;;;;;;;;;;4948876;28;20134;-60
2022/05/18 08:32:00;;;;;;;11.00;6.90;;;;;;;;;;4948651;28;20507;-59
2022/05/18 08:34:26;;;;;;;11.02;7.05;;;;;;;;;;4945569;29;20069;-59
2022/05/18 08:36:52;;;;;;;14.32;8.00;;;;;;;;;;4949463;29;20077;-60
2022/05/18 08:39:18;;;;;;;12.73;7.85;;;;;;;;;;4948996;29;20624;-59
2022/05/18 08:41:45;;;;;;;12.07;7.03;;;;;;;;;;4948204;28;20408;-59
2022/05/18 08:44:25;;;;;;;13.53;7.43;;;;;;;;;;4949326;28;20398;-59
2022/05/18 08:47:07;;;;;;;16.30;7.38;;;;;;;;;;4948452;28;20298;-59
2022/05/18 08:49:40;;;;;;;12.60;6.57;;;;;;;;;;4949331;28;20039;-59
2022/05/18 08:52:19;;;;;;;12.45;6.72;;;;;;;;;;4949357;28;20259;-60
2022/05/18 08:54:58;;;;;;;18.30;6.40;;;;;;;;;;4948824;29;20035;-59
2022/05/18 08:57:28;;;;;;;12.50;6.70;;;;;;;;;;4948415;29;20102;-59
2022/05/18 08:59:57;;;;;;;9.20;6.07;;;;;;;;;;4948897;29;20091;-59
2022/05/18 09:02:27;;;;;;;15.32;6.03;;;;;;;;;;4948067;29;20098;-60
2022/05/18 09:04:56;;;;;;;10.27;5.95;;;;;;;;;;4948663;29;20093;-59
2022/05/18 09:07:25;;;;;;;10.30;6.68;;;;;;;;;;4948363;29;20090;-59
2022/05/18 09:12:38;;;;;;;10.38;6.60;;;;;;;;;;4946224;28;20089;-60
2022/05/18 09:15:07;;;;;;;12.75;6.30;;;;;;;;;;4945355;29;20042;-60
2022/05/18 09:17:50;;;;;;;11.85;6.25;;;;;;;;;;4947458;29;20401;-59
2022/05/18 09:20:29;;;;;;;10.13;6.43;;;;;;;;;;4948122;28;20043;-59
2022/05/18 09:23:09;;;;;;;13.70;6.32;;;;;;;;;;4948763;28;20050;-59
2022/05/18 09:25:43;;;;;;;12.07;7.47;;;;;;;;;;4948176;28;20492;-59
2022/05/18 09:28:14;;;;;;;11.52;7.03;;;;;;;;;;4945353;29;20039;-59
2022/05/18 09:30:50;;;;;;;10.82;7.18;;;;;;;;;;4948829;28;20071;-60
2022/05/18 09:33:18;;;;;;;14.68;7.03;;;;;;;;;;4947492;28;20036;-59
2022/05/18 09:35:45;;;;;;;12.32;6.38;;;;;;;;;;4948477;28;20052;-60
2022/05/18 09:38:26;;;;;;;11.63;5.55;;;;;;;;;;4947762;28;20118;-60
2022/05/18 09:40:52;;;;;;;12.82;7.20;;;;;;;;;;4948156;29;20126;-60
2022/05/18 09:43:24;;;;;;;12.27;6.68;;;;;;;;;;4947813;28;20035;-60
2022/05/18 09:45:51;;;;;;;14.13;7.65;;;;;;;;;;4948123;28;20171;-59
2022/05/18 09:48:25;;;;;;;15.82;7.43;;;;;;;;;;4947038;29;20047;-59
2022/05/18 09:50:51;;;;;;;14.10;8.13;;;;;;;;;;4948327;28;20541;-60
2022/05/18 09:53:18;;;;;;;12.35;6.38;;;;;;;;;;4947424;28;20043;-59
2022/05/18 09:55:46;;;;;;;12.43;6.93;;;;;;;;;;4947710;28;20106;-60
2022/05/18 09:58:15;;;;;;;14.82;7.47;;;;;;;;;;4947958;28;20047;-60
2022/05/18 10:00:42;;;;;;;22.25;7.00;;;;;;;;;;4942741;28;20049;-60
2022/05/18 10:08:47;;;;;;;13.40;8.02;;;;;;;;;;4947482;28;20051;-60
2022/05/18 10:11:14;;;;;;;14.32;7.32;;;;;;;;;;4947205;28;20434;-60
2022/05/18 10:13:43;;;;;;;13.90;7.10;;;;;;;;;;4947514;28;20106;-60
2022/05/18 10:16:18;;;;;;;13.00;7.70;;;;;;;;;;4947661;29;20043;-60
2022/05/18 10:18:45;;;;;;;12.70;7.30;;;;;;;;;;4947581;29;20102;-60
2022/05/18 10:21:18;;;;;;;14.45;6.90;;;;;;;;;;4946943;28;20504;-59
2022/05/18 10:23:48;;;;;;;18.02;8.00;;;;;;;;;;4947278;28;20055;-59
2022/05/18 10:26:22;;;;;;;16.52;8.05;;;;;;;;;;4947370;28;20039;-59
2022/05/18 10:28:55;;;;;;;12.85;7.40;;;;;;;;;;4947205;28;20047;-60
2022/05/18 10:31:26;;;;;;;13.55;6.25;;;;;;;;;;4946126;28;20105;-59
2022/05/18 10:34:07;;;;;;;13.55;7.45;;;;;;;;;;4947375;29;20081;-60
2022/05/18 10:36:33;;;;;;;16.67;7.88;;;;;;;;;;4947760;29;20054;-59
2022/05/18 10:39:00;;;;;;;17.23;9.25;;;;;;;;;;4947255;29;20047;-59
2022/05/18 10:41:36;;;;;;;12.57;7.13;;;;;;;;;;4946348;29;20052;-59
2022/05/18 10:44:16;;;;;;;16.33;7.53;;;;;;;;;;4947485;29;20050;-60
2022/05/18 10:46:44;;;;;;;14.82;8.85;;;;;;;;;;4945964;29;20062;-60
2022/05/18 10:49:23;;;;;;;16.73;9.38;;;;;;;;;;4946366;29;20043;-59
2022/05/18 10:51:49;;;;;;;18.13;11.15;;;;;;;;;;4946669;28;20126;-60
2022/05/18 10:54:21;;;;;;;22.17;11.20;;;;;;;;;;4946884;28;20044;-59
2022/05/18 10:56:48;;;;;;;14.88;8.77;;;;;;;;;;4946903;28;20421;-59
2022/05/18 10:59:15;;;;;;;15.70;9.07;;;;;;;;;;4946170;28;20098;-59
2022/05/18 11:01:49;;;;;;;15.48;9.55;;;;;;;;;;4946027;29;20073;-60
2022/05/18 11:04:17;;;;;;;17.38;10.23;;;;;;;;;;4945014;29;20039;-60
2022/05/18 11:06:43;;;;;;;14.32;10.73;;;;;;;;;;4943734;29;20050;-60
2022/05/18 11:09:18;;;;;;;17.75;11.60;;;;;;;;;;4943730;29;20059;-60
2022/05/18 11:11:55;;;;;;;20.90;11.52;;;;;;;;;;4940695;29;20082;-60
2022/05/18 11:14:27;;;;;;;20.38;12.55;;;;;;;;;;4943585;28;20046;-60
2022/05/18 11:17:00;;;;;;;22.45;11.40;;;;;;;;;;4942647;29;20564;-60
2022/05/18 11:19:40;;;;;;;18.98;11.00;;;;;;;;;;4943942;28;20055;-60
2022/05/18 11:22:15;;;;;;;24.17;10.88;;;;;;;;;;4944203;28;20071;-60
2022/05/18 11:24:58;;;;;;;18.92;10.95;;;;;;;;;;4941228;29;20054;-60
2022/05/18 11:27:28;;;;;;;18.05;10.48;;;;;;;;;;4943645;29;20126;-60
2022/05/18 11:30:00;;;;;;;21.35;10.32;;;;;;;;;;4943936;28;20478;-60
2022/05/18 11:32:32;;;;;;;18.63;9.68;;;;;;;;;;4942884;28;20055;-60
2022/05/18 11:35:17;;;;;;;15.13;8.13;;;;;;;;;;4943525;29;20105;-57
2022/05/18 11:37:53;;;;;;;22.77;9.65;;;;;;;;;;4943714;29;20582;-60
2022/05/18 11:40:42;;;;;;;20.05;9.82;;;;;;;;;;4943269;28;20090;-60
2022/05/18 11:43:28;;;;;;;12.20;8.50;;;;;;;;;;4943849;29;20050;-60
2022/05/18 11:46:00;;;;;;;13.23;7.25;;;;;;;;;;4939245;29;20047;-60
2022/05/18 11:48:45;;;;;;;12.88;7.95;;;;;;;;;;4934910;29;20043;-61
2022/05/18 11:51:30;;;;;;;11.30;3.10;;;;;;;;;;4944666;29;20090;-60
2022/05/18 11:53:56;;;;;;;11.63;2.70;;;;;;;;;;4946452;29;20055;-60
2022/05/18 11:56:26;;;;;;;7.07;3.30;;;;;;;;;;4945033;29;20032;-60
2022/05/18 11:59:10;;;;;;;4.65;2.42;;;;;;;;;;4945650;29;20070;-60
2022/05/18 12:01:36;;;;;;;4.78;2.50;;;;;;;;;;4944890;29;20506;-60
2022/05/18 12:04:15;;;;;;;6.93;2.70;;;;;;;;;;4946332;28;20478;-60
2022/05/18 12:07:01;;;;;;;7.18;2.70;;;;;;;;;;4945640;28;20059;-60
2022/05/18 12:09:28;;;;;;;9.38;3.50;;;;;;;;;;4945407;28;20473;-59
2022/05/18 12:11:55;;;;;;;20.83;5.87;;;;;;;;;;4945564;28;20039;-60
2022/05/18 12:14:41;;;;;;;9.27;5.20;;;;;;;;;;4945145;28;20130;-59
2022/05/18 12:17:11;;;;;;;19.45;5.60;;;;;;;;;;4944288;28;20048;-60
2022/05/18 12:19:45;;;;;;;8.40;4.57;;;;;;;;;;4945682;29;20488;-60
2022/05/18 12:22:22;;;;;;;9.45;3.42;;;;;;;;;;4945575;29;20128;-59
2022/05/18 12:24:50;;;;;;;5.65;3.10;;;;;;;;;;4945322;28;20048;-60
2022/05/18 12:27:18;;;;;;;8.20;3.10;;;;;;;;;;4945335;28;20502;-59
2022/05/18 12:29:44;;;;;;;4.95;3.08;;;;;;;;;;4945532;28;20051;-60
2022/05/18 12:32:11;;;;;;;9.20;3.75;;;;;;;;;;4940294;28;20042;-59
2022/05/18 12:34:42;;;;;;;8.57;4.47;;;;;;;;;;4938997;29;20051;-60
2022/05/18 12:37:14;;;;;;;9.05;3.45;;;;;;;;;;4941870;28;20047;-60
2022/05/18 12:39:42;;;;;;;7.70;4.40;;;;;;;;;;4944752;28;20138;-61
2022/05/18 12:42:12;;;;;;;9.63;3.72;;;;;;;;;;4942883;29;20142;-61
2022/05/18 12:44:40;;;;;;;6.40;3.50;;;;;;;;;;4943622;28;20043;-61
2022/05/18 12:47:20;;;;;;;7.65;3.95;;;;;;;;;;4945225;28;20082;-62
2022/05/18 12:49:51;;;;;;;8.77;4.03;;;;;;;;;;4947838;28;20075;-61
2022/05/18 12:52:32;;;;;;;7.25;3.60;;;;;;;;;;4948699;28;20097;-61
2022/05/18 12:55:03;;;;;;;9.45;4.70;;;;;;;;;;4963649;28;20039;-61
2022/05/18 12:57:42;;;;;;;8.88;4.88;;;;;;;;;;4947659;28;20043;-61
2022/05/18 13:00:11;;;;;;;11.32;5.00;;;;;;;;;;4962867;28;20053;-61
2022/05/18 13:02:41;;;;;;;12.52;5.00;;;;;;;;;;4948212;28;20043;-61
2022/05/18 13:05:31;;;;;;;8.68;4.90;;;;;;;;;;4948725;28;20564;-62
2022/05/18 13:08:11;;;;;;;11.55;5.93;;;;;;;;;;4948026;29;20051;-61
2022/05/18 13:10:38;;;;;;;9.38;5.85;;;;;;;;;;4944484;28;20135;-61
2022/05/18 13:13:10;;;;;;;11.85;5.65;;;;;;;;;;4948169;28;20074;-61
2022/05/18 13:15:39;;;;;;;11.93;6.10;;;;;;;;;;4948016;28;20099;-61
2022/05/18 13:18:11;;;;;;;12.43;6.65;;;;;;;;;;4948047;29;20035;-60
2022/05/18 13:20:51;;;;;;;11.32;6.28;;;;;;;;;;4947829;29;20505;-61
2022/05/18 13:23:26;;;;;;;13.35;6.80;;;;;;;;;;4947202;28;20050;-61
2022/05/18 13:25:55;;;;;;;15.05;6.63;;;;;;;;;;4947918;28;20047;-61
2022/05/18 13:28:22;;;;;;;12.48;5.78;;;;;;;;;;4947786;28;20047;-61
2022/05/18 13:30:50;;;;;;;14.35;7.57;;;;;;;;;;4948007;28;20560;-61
2022/05/18 13:33:17;;;;;;;11.15;7.13;;;;;;;;;;4944725;28;20039;-61
2022/05/18 13:35:46;;;;;;;12.63;6.70;;;;;;;;;;4948254;28;20086;-61
2022/05/18 13:38:15;;;;;;;13.15;8.25;;;;;;;;;;4947571;28;20051;-61
2022/05/18 13:40:43;;;;;;;16.08;9.75;;;;;;;;;;4946004;29;20047;-61
2022/05/18 13:43:12;;;;;;;18.63;9.98;;;;;;;;;;4947996;28;20406;-61
2022/05/18 13:45:39;;;;;;;15.10;9.05;;;;;;;;;;4944028;29;20120;-61
2022/05/18 13:48:12;;;;;;;17.15;9.80;;;;;;;;;;4947764;29;20083;-60
2022/05/18 13:50:41;;;;;;;16.00;8.60;;;;;;;;;;4947770;28;20093;-60
2022/05/18 13:53:10;;;;;;;20.05;10.38;;;;;;;;;;4947917;29;20537;-60
2022/05/18 13:55:42;;;;;;;15.55;9.70;;;;;;;;;;4947260;28;20070;-60
2022/05/18 13:58:11;;;;;;;21.75;13.85;;;;;;;;;;4947136;28;20133;-61
2022/05/18 14:00:43;;;;;;;22.63;13.85;;;;;;;;;;4947630;28;20055;-60
2022/05/18 14:03:12;;;;;;;23.15;14.73;;;;;;;;;;4946216;29;20077;-60
2022/05/18 14:05:40;;;;;;;21.35;13.93;;;;;;;;;;4946123;28;20178;-61
2022/05/18 14:08:06;;;;;;;;;;;;;;;;;;4948398;28;20043;-60
2022/05/18 14:10:33;;;;;;;22.48;13.48;;;;;;;;;;4946293;28;20009;-60
2022/05/18 14:13:02;;;;;;;24.50;13.63;;;;;;;;;;4947734;29;20516;-60
2022/05/18 14:15:31;;;;;;;18.50;12.85;;;;;;;;;;4946098;29;20137;-60
2022/05/18 14:17:59;;;;;;;19.58;10.85;;;;;;;;;;4946713;29;20043;-60
2022/05/18 14:20:35;;;;;;;23.17;10.40;;;;;;;;;;4945556;28;20054;-60
2022/05/18 14:23:03;;;;;;;20.33;9.10;;;;;;;;;;4947577;28;20098;-60
2022/05/18 14:25:32;;;;;;;14.93;8.77;;;;;;;;;;4947215;28;20050;-60
2022/05/18 14:28:00;;;;;;;14.82;7.80;;;;;;;;;;4947265;28;20043;-59
2022/05/18 14:30:30;;;;;;;16.10;7.15;;;;;;;;;;4944448;28;20086;-60
2022/05/18 14:33:09;;;;;;;15.13;6.88;;;;;;;;;;4942846;29;20137;-60
2022/05/18 14:35:38;;;;;;;9.93;7.43;;;;;;;;;;4945187;29;20139;-60
2022/05/18 14:38:07;;;;;;;14.93;10.73;;;;;;;;;;4945150;29;20050;-61
2022/05/18 14:40:46;;;;;;;12.43;7.95;;;;;;;;;;4944901;29;20130;-61
2022/05/18 14:43:13;;;;;;;16.60;7.25;;;;;;;;;;4944087;29;20051;-60
2022/05/18 14:45:43;;;;;;;13.63;6.90;;;;;;;;;;4943504;29;20043;-61
2022/05/18 14:48:15;;;;;;;13.10;7.30;;;;;;;;;;4944008;28;20050;-60
2022/05/18 14:50:43;;;;;;;15.18;7.50;;;;;;;;;;4940419;29;20057;-60
2022/05/18 14:53:14;;;;;;;13.05;8.25;;;;;;;;;;4944746;29;20031;-60
2022/05/18 14:55:41;;;;;;;17.27;8.45;;;;;;;;;;4944776;29;20549;-61
2022/05/18 14:58:09;;;;;;;10.40;6.15;;;;;;;;;;4943820;29;20057;-61
2022/05/18 15:00:40;;;;;;;10.98;5.97;;;;;;;;;;4938953;28;20126;-61
2022/05/18 15:03:09;;;;;;;9.32;5.28;;;;;;;;;;4945968;29;20494;-61